createdAt,value
2018-04-04T00:02:10.445Z,993.44
2018-04-04T00:03:00.067Z,993.41
2018-04-04T00:05:18.052Z,993.3
2018-04-04T00:05:58.185Z,993.28
2018-04-04T00:06:39.001Z,993.31
2018-04-04T00:07:20.577Z,993.33
2018-04-04T00:08:01.851Z,993.33
2018-04-04T00:12:26.555Z,993.28
2018-04-04T00:13:13.238Z,993.26
2018-04-04T00:13:57.584Z,993.24
2018-04-04T00:14:37.937Z,993.18
2018-04-04T00:15:18.409Z,993.24
2018-04-04T00:15:58.741Z,993.22
2018-04-04T00:16:39.197Z,993.25
2018-04-04T00:17:19.595Z,993.27
2018-04-04T00:17:59.945Z,993.23
2018-04-04T00:18:40.460Z,993.25
2018-04-04T00:19:20.810Z,993.23
2018-04-04T00:20:01.199Z,993.22
2018-04-04T00:20:41.520Z,993.24
2018-04-04T00:21:21.890Z,993.26
2018-04-04T00:22:02.309Z,993.25
2018-04-04T00:22:42.625Z,993.23
2018-04-04T00:23:23.169Z,993.23
2018-04-04T00:24:03.755Z,993.26
2018-04-04T00:24:46.202Z,993.28
2018-04-04T00:27:04.084Z,993.26
2018-04-04T00:30:26.759Z,993.34
2018-04-04T00:31:11.824Z,993.28
2018-04-04T00:31:51.976Z,993.3
2018-04-04T00:32:32.411Z,993.31
2018-04-04T00:33:12.784Z,993.31
2018-04-04T00:33:53.237Z,993.34
2018-04-04T00:34:33.582Z,993.3
2018-04-04T00:35:14.000Z,993.33
2018-04-04T00:35:54.416Z,993.35
2018-04-04T00:36:34.810Z,993.36
2018-04-04T00:37:15.171Z,993.36
2018-04-04T00:37:55.582Z,993.43
2018-04-04T00:38:35.918Z,993.38
2018-04-04T00:39:16.321Z,993.41
2018-04-04T00:39:56.678Z,993.43
2018-04-04T00:40:37.174Z,993.46
2018-04-04T00:41:17.470Z,993.46
2018-04-04T00:41:57.946Z,993.5
2018-04-04T00:42:38.429Z,993.51
2018-04-04T00:43:18.788Z,993.51
2018-04-04T00:43:59.744Z,993.46
2018-04-04T00:44:40.368Z,993.48
2018-04-04T00:45:20.562Z,993.41
2018-04-04T00:48:39.752Z,993.39
2018-04-04T00:49:20.205Z,993.43
2018-04-04T00:50:00.589Z,993.49
2018-04-04T00:50:40.963Z,993.43
2018-04-04T00:51:21.352Z,993.5
2018-04-04T00:52:01.754Z,993.46
2018-04-04T00:52:42.159Z,993.5
2018-04-04T00:53:22.550Z,993.48
2018-04-04T00:54:02.941Z,993.49
2018-04-04T00:54:43.332Z,993.5
2018-04-04T00:55:23.686Z,993.5
2018-04-04T00:56:04.147Z,993.5
2018-04-04T00:56:44.473Z,993.52
2018-04-04T00:57:24.937Z,993.57
2018-04-04T00:58:05.293Z,993.6
2018-04-04T00:58:45.663Z,993.62
2018-04-04T00:59:26.078Z,993.61
2018-04-04T01:00:06.488Z,993.62
2018-04-04T01:00:46.912Z,993.61
2018-04-04T01:01:27.634Z,993.56
2018-04-04T01:02:08.023Z,993.6
2018-04-04T01:02:48.366Z,993.56
2018-04-04T01:03:28.833Z,993.55
2018-04-04T01:04:09.202Z,993.53
2018-04-04T01:04:49.494Z,993.54
2018-04-04T01:05:29.997Z,993.51
2018-04-04T01:06:10.356Z,993.57
2018-04-04T01:06:50.780Z,993.6
2018-04-04T01:07:31.238Z,993.58
2018-04-04T01:08:11.608Z,993.58
2018-04-04T01:08:52.016Z,993.62
2018-04-04T01:09:32.363Z,993.63
2018-04-04T01:10:12.781Z,993.61
2018-04-04T01:10:53.233Z,993.64
2018-04-04T01:11:33.734Z,993.6
2018-04-04T01:12:13.935Z,993.59
2018-04-04T01:12:54.389Z,993.58
2018-04-04T01:13:34.896Z,993.61
2018-04-04T01:14:15.150Z,993.65
2018-04-04T01:14:55.513Z,993.63
2018-04-04T01:15:35.940Z,993.67
2018-04-04T01:16:16.331Z,993.64
2018-04-04T01:16:56.730Z,993.6
2018-04-04T01:17:37.119Z,993.61
2018-04-04T01:18:17.496Z,993.62
2018-04-04T01:18:57.939Z,993.58
2018-04-04T01:19:38.289Z,993.57
2018-04-04T01:20:18.696Z,993.56
2018-04-04T01:20:59.060Z,993.52
2018-04-04T01:21:39.453Z,993.52
2018-04-04T01:22:19.871Z,993.53
2018-04-04T01:23:00.250Z,993.51
2018-04-04T01:23:40.648Z,993.52
2018-04-04T01:24:21.047Z,993.57
2018-04-04T01:25:01.460Z,993.51
2018-04-04T01:25:41.838Z,993.5
2018-04-04T01:26:22.279Z,993.51
2018-04-04T01:27:02.668Z,993.48
2018-04-04T01:27:43.024Z,993.46
2018-04-04T01:28:23.419Z,993.51
2018-04-04T01:29:03.827Z,993.45
2018-04-04T01:31:25.002Z,993.49
2018-04-04T01:32:04.900Z,993.52
2018-04-04T01:32:45.316Z,993.49
2018-04-04T01:33:25.763Z,993.57
2018-04-04T01:34:06.057Z,993.57
2018-04-04T01:34:46.422Z,993.57
2018-04-04T01:35:26.872Z,993.59
2018-04-04T01:36:07.272Z,993.61
2018-04-04T01:36:47.657Z,993.62
2018-04-04T01:37:28.043Z,993.62
2018-04-04T01:38:08.422Z,993.62
2018-04-04T01:38:48.811Z,993.65
2018-04-04T01:39:29.204Z,993.65
2018-04-04T01:40:09.647Z,993.61
2018-04-04T01:40:50.032Z,993.58
2018-04-04T01:41:30.404Z,993.64
2018-04-04T01:42:10.823Z,993.62
2018-04-04T01:42:51.206Z,993.69
2018-04-04T01:43:31.572Z,993.68
2018-04-04T01:44:12.005Z,993.69
2018-04-04T01:44:53.282Z,993.68
2018-04-04T01:45:33.680Z,993.69
2018-04-04T01:46:14.663Z,993.66
2018-04-04T01:46:56.531Z,993.68
2018-04-04T01:47:36.481Z,993.65
2018-04-04T01:48:17.006Z,993.68
2018-04-04T01:48:57.311Z,993.64
2018-04-04T01:49:37.650Z,993.6
2018-04-04T01:50:18.054Z,993.61
2018-04-04T01:50:58.415Z,993.65
2018-04-04T01:51:38.807Z,993.66
2018-04-04T01:52:19.247Z,993.64
2018-04-04T01:52:59.620Z,993.68
2018-04-04T01:53:40.099Z,993.66
2018-04-04T01:54:20.518Z,993.69
2018-04-04T01:55:00.938Z,993.68
2018-04-04T01:55:41.549Z,993.71
2018-04-04T01:56:21.906Z,993.7
2018-04-04T01:57:02.370Z,993.73
2018-04-04T01:57:42.767Z,993.72
2018-04-04T01:58:23.182Z,993.75
2018-04-04T01:59:03.617Z,993.7
2018-04-04T01:59:43.993Z,993.72
2018-04-04T02:00:24.383Z,993.68
2018-04-04T02:01:04.793Z,993.69
2018-04-04T02:01:45.205Z,993.69
2018-04-04T02:02:25.598Z,993.7
2018-04-04T02:03:05.966Z,993.63
2018-04-04T02:03:46.377Z,993.67
2018-04-04T02:04:26.810Z,993.69
2018-04-04T02:05:07.156Z,993.67
2018-04-04T02:05:47.548Z,993.67
2018-04-04T02:06:27.923Z,993.72
2018-04-04T02:07:08.278Z,993.72
2018-04-04T02:07:48.712Z,993.71
2018-04-04T02:08:29.188Z,993.69
2018-04-04T02:09:09.632Z,993.72
2018-04-04T02:09:50.016Z,993.73
2018-04-04T02:10:30.419Z,993.76
2018-04-04T02:11:11.157Z,993.76
2018-04-04T02:11:51.821Z,993.8
2018-04-04T02:12:32.568Z,993.78
2018-04-04T02:13:12.958Z,993.74
2018-04-04T02:13:53.353Z,993.74
2018-04-04T02:14:33.766Z,993.73
2018-04-04T02:15:14.128Z,993.72
2018-04-04T02:15:54.581Z,993.74
2018-04-04T02:16:35.073Z,993.75
2018-04-04T02:17:15.315Z,993.79
2018-04-04T02:17:55.757Z,993.76
2018-04-04T02:18:36.135Z,993.76
2018-04-04T02:19:17.272Z,993.81
2018-04-04T02:19:57.753Z,993.77
2018-04-04T02:20:38.107Z,993.78
2018-04-04T02:21:18.525Z,993.79
2018-04-04T02:21:58.889Z,993.75
2018-04-04T02:22:39.291Z,993.77
2018-04-04T02:23:19.645Z,993.76
2018-04-04T02:24:00.082Z,993.79
2018-04-04T02:24:40.456Z,993.75
2018-04-04T02:25:20.800Z,993.82
2018-04-04T02:26:01.240Z,993.76
2018-04-04T02:26:41.568Z,993.72
2018-04-04T02:27:22.007Z,993.69
2018-04-04T02:28:02.420Z,993.67
2018-04-04T02:28:42.804Z,993.69
2018-04-04T02:29:23.198Z,993.68
2018-04-04T02:30:03.561Z,993.66
2018-04-04T02:30:43.993Z,993.66
2018-04-04T02:31:24.370Z,993.65
2018-04-04T02:32:04.801Z,993.61
2018-04-04T02:32:45.142Z,993.64
2018-04-04T02:33:25.549Z,993.62
2018-04-04T02:34:05.979Z,993.69
2018-04-04T02:34:46.322Z,993.69
2018-04-04T02:35:26.690Z,993.68
2018-04-04T02:36:07.710Z,993.69
2018-04-04T02:36:48.184Z,993.65
2018-04-04T02:37:30.214Z,993.64
2018-04-04T02:38:10.609Z,993.6
2018-04-04T02:38:50.985Z,993.57
2018-04-04T02:39:31.360Z,993.63
2018-04-04T02:40:11.778Z,993.59
2018-04-04T02:40:52.172Z,993.56
2018-04-04T02:41:32.561Z,993.6
2018-04-04T02:42:12.925Z,993.59
2018-04-04T02:42:53.346Z,993.61
2018-04-04T02:43:33.717Z,993.61
2018-04-04T02:44:14.109Z,993.63
2018-04-04T02:44:54.543Z,993.61
2018-04-04T02:45:34.946Z,993.61
2018-04-04T02:46:15.342Z,993.59
2018-04-04T02:46:55.707Z,993.57
2018-04-04T02:47:36.081Z,993.55
2018-04-04T02:48:16.477Z,993.51
2018-04-04T02:48:56.889Z,993.49
2018-04-04T02:49:37.299Z,993.52
2018-04-04T02:50:17.673Z,993.48
2018-04-04T02:50:58.082Z,993.51
2018-04-04T02:51:38.468Z,993.51
2018-04-04T02:52:18.902Z,993.51
2018-04-04T02:52:59.237Z,993.51
2018-04-04T02:53:39.626Z,993.48
2018-04-04T02:54:20.050Z,993.48
2018-04-04T02:55:00.387Z,993.47
2018-04-04T02:55:40.804Z,993.47
2018-04-04T02:56:21.177Z,993.42
2018-04-04T02:57:01.626Z,993.42
2018-04-04T02:57:41.993Z,993.43
2018-04-04T02:58:22.490Z,993.41
2018-04-04T02:59:02.796Z,993.35
2018-04-04T02:59:43.279Z,993.29
2018-04-04T03:00:23.689Z,993.32
2018-04-04T03:01:04.020Z,993.25
2018-04-04T03:01:44.385Z,993.19
2018-04-04T03:02:24.835Z,993.14
2018-04-04T03:03:05.192Z,993.12
2018-04-04T03:03:45.553Z,993.13
2018-04-04T03:04:25.944Z,993.14
2018-04-04T03:05:06.326Z,993.13
2018-04-04T03:05:46.697Z,993.13
2018-04-04T03:06:27.077Z,993.08
2018-04-04T03:07:07.520Z,993.1
2018-04-04T03:07:47.922Z,993.13
2018-04-04T03:08:28.349Z,993.16
2018-04-04T03:09:13.164Z,993.22
2018-04-04T03:09:54.689Z,993.24
2018-04-04T03:10:35.075Z,993.23
2018-04-04T03:11:15.853Z,993.22
2018-04-04T03:11:57.654Z,993.26
2018-04-04T03:12:37.145Z,993.25
2018-04-04T03:13:17.753Z,993.22
2018-04-04T03:13:58.292Z,993.23
2018-04-04T03:14:38.781Z,993.2
2018-04-04T03:15:19.541Z,993.16
2018-04-04T03:16:00.356Z,993.19
2018-04-04T03:16:40.757Z,993.22
2018-04-04T03:17:21.443Z,993.24
2018-04-04T03:18:02.754Z,993.22
2018-04-04T03:18:46.787Z,993.22
2018-04-04T03:19:27.185Z,993.17
2018-04-04T03:20:07.596Z,993.21
2018-04-04T03:20:48.196Z,993.18
2018-04-04T03:21:29.483Z,993.17
2018-04-04T03:22:10.535Z,992.91
2018-04-04T03:22:50.732Z,993.16
2018-04-04T03:23:31.157Z,993.16
2018-04-04T03:24:11.588Z,993.14
2018-04-04T03:24:52.189Z,993.08
2018-04-04T03:25:33.091Z,993.07
2018-04-04T03:26:14.056Z,993.06
2018-04-04T03:28:37.457Z,992.99
2018-04-04T03:29:24.245Z,992.99
2018-04-04T03:31:49.772Z,992.97
2018-04-04T03:32:34.739Z,992.96
2018-04-04T03:33:16.851Z,992.91
2018-04-04T03:33:57.053Z,992.9
2018-04-04T03:34:37.298Z,992.85
2018-04-04T03:35:17.701Z,992.85
2018-04-04T03:35:58.091Z,992.82
2018-04-04T03:36:38.472Z,992.85
2018-04-04T03:37:19.116Z,992.88
2018-04-04T03:37:59.292Z,992.89
2018-04-04T03:38:39.768Z,992.9
2018-04-04T03:44:25.690Z,992.9
2018-04-04T03:45:12.938Z,992.9
2018-04-04T03:45:54.566Z,992.93
2018-04-04T03:46:35.168Z,992.93
2018-04-04T03:47:15.476Z,992.89
2018-04-04T03:47:55.829Z,992.91
2018-04-04T03:48:36.130Z,992.88
2018-04-04T03:49:16.527Z,992.9
2018-04-04T03:49:57.465Z,992.88
2018-04-04T03:50:37.832Z,992.87
2018-04-04T03:51:18.250Z,992.88
2018-04-04T03:51:58.588Z,992.87
2018-04-04T03:52:39.114Z,992.89
2018-04-04T03:53:19.374Z,992.87
2018-04-04T03:53:59.872Z,992.85
2018-04-04T03:54:40.663Z,992.89
2018-04-04T03:55:21.135Z,992.9
2018-04-04T03:56:01.672Z,992.95
2018-04-04T03:56:42.766Z,992.95
2018-04-04T03:57:23.493Z,992.95
2018-04-04T03:58:06.034Z,992.95
2018-04-04T03:58:47.141Z,992.91
2018-04-04T03:59:27.402Z,992.99
2018-04-04T04:00:08.232Z,992.99
2018-04-04T04:00:49.332Z,992.97
2018-04-04T04:01:31.955Z,993.02
2018-04-04T04:02:12.768Z,992.98
2018-04-04T04:41:01.864Z,992.71
2018-04-04T04:45:01.579Z,992.68
2018-04-04T04:45:39.798Z,992.7
2018-04-04T04:46:20.190Z,992.74
2018-04-04T04:47:00.591Z,992.73
2018-04-04T04:47:41.079Z,992.66
2018-04-04T04:48:21.396Z,992.74
2018-04-04T04:49:01.805Z,992.73
2018-04-04T04:49:42.214Z,992.71
2018-04-04T04:50:22.506Z,992.72
2018-04-04T04:51:02.894Z,992.75
2018-04-04T04:51:43.448Z,992.83
2018-04-04T04:52:24.108Z,992.75
2018-04-04T04:53:04.444Z,992.75
2018-04-04T04:53:45.326Z,992.76
2018-04-04T04:54:27.103Z,992.76
2018-04-04T04:55:07.710Z,992.77
2018-04-04T04:55:48.556Z,992.75
2018-04-04T04:57:12.661Z,992.76
2018-04-04T04:57:59.468Z,992.86
2018-04-04T04:58:44.010Z,992.87
2018-04-04T04:59:24.399Z,992.92
2018-04-04T05:00:04.854Z,992.85
2018-04-04T05:00:47.324Z,992.82
2018-04-04T05:01:27.860Z,992.8
2018-04-04T05:02:11.843Z,992.82
2018-04-04T05:02:52.596Z,992.81
2018-04-04T05:03:32.899Z,992.83
2018-04-04T05:04:13.369Z,992.82
2018-04-04T05:04:53.806Z,992.85
2018-04-04T05:05:34.222Z,992.84
2018-04-04T05:06:14.612Z,992.78
2018-04-04T05:06:55.106Z,992.8
2018-04-04T05:07:35.492Z,992.81
2018-04-04T05:08:15.870Z,992.79
2018-04-04T05:08:56.306Z,992.77
2018-04-04T05:09:36.766Z,992.75
2018-04-04T05:10:17.323Z,992.8
2018-04-04T05:10:57.677Z,992.82
2018-04-04T05:11:38.091Z,992.84
2018-04-04T05:12:18.416Z,992.84
2018-04-04T05:12:58.872Z,992.82
2018-04-04T05:13:39.227Z,992.86
2018-04-04T05:14:19.576Z,992.84
2018-04-04T05:14:59.992Z,992.82
2018-04-04T05:15:40.391Z,992.81
2018-04-04T05:16:20.846Z,992.77
2018-04-04T05:17:01.182Z,992.79
2018-04-04T05:17:41.596Z,992.76
2018-04-04T05:18:22.033Z,992.71
2018-04-04T05:19:02.383Z,992.67
2018-04-04T05:19:42.747Z,992.67
2018-04-04T05:20:23.129Z,992.68
2018-04-04T05:21:03.586Z,992.72
2018-04-04T05:21:43.983Z,992.73
2018-04-04T05:22:24.365Z,992.75
2018-04-04T05:23:04.890Z,992.76
2018-04-04T05:23:45.169Z,992.7
2018-04-04T05:24:25.639Z,992.71
2018-04-04T05:25:05.933Z,992.72
2018-04-04T05:25:46.378Z,992.74
2018-04-04T05:26:26.830Z,992.76
2018-04-04T05:27:07.166Z,992.72
2018-04-04T05:27:48.196Z,992.75
2018-04-04T05:28:28.290Z,992.78
2018-04-04T05:29:08.601Z,992.74
2018-04-04T05:29:49.042Z,992.76
2018-04-04T05:30:29.480Z,992.75
2018-04-04T05:31:09.862Z,992.75
2018-04-04T05:31:50.202Z,992.73
2018-04-04T05:32:30.638Z,992.72
2018-04-04T05:33:11.010Z,992.73
2018-04-04T05:33:51.429Z,992.74
2018-04-04T05:34:31.887Z,992.72
2018-04-04T05:35:12.244Z,992.76
2018-04-04T05:35:52.634Z,992.71
2018-04-04T05:36:33.074Z,992.71
2018-04-04T05:37:13.553Z,992.74
2018-04-04T05:37:53.992Z,992.74
2018-04-04T05:38:34.307Z,992.72
2018-04-04T05:39:14.779Z,992.71
2018-04-04T05:39:55.757Z,992.72
2018-04-04T05:40:36.166Z,992.68
2018-04-04T05:41:16.591Z,992.7
2018-04-04T05:41:56.971Z,992.68
2018-04-04T05:42:37.382Z,992.68
2018-04-04T05:43:17.806Z,992.68
2018-04-04T05:43:58.250Z,992.71
2018-04-04T05:44:38.589Z,992.73
2018-04-04T05:45:19.271Z,992.7
2018-04-04T05:45:59.759Z,992.71
2018-04-04T05:46:40.100Z,992.74
2018-04-04T05:47:20.551Z,992.76
2018-04-04T05:48:00.943Z,992.75
2018-04-04T05:48:41.517Z,992.71
2018-04-04T05:49:22.074Z,992.72
2018-04-04T05:50:02.405Z,992.72
2018-04-04T05:50:42.688Z,992.75
2018-04-04T05:51:23.210Z,992.76
2018-04-04T05:52:03.621Z,992.78
2018-04-04T05:52:43.996Z,992.72
2018-04-04T05:53:24.559Z,992.73
2018-04-04T05:54:04.924Z,992.81
2018-04-04T05:54:45.447Z,992.8
2018-04-04T05:55:25.716Z,992.78
2018-04-04T05:56:06.187Z,992.82
2018-04-04T05:56:46.706Z,992.83
2018-04-04T05:57:27.125Z,992.87
2018-04-04T05:58:07.517Z,992.84
2018-04-04T05:58:48.032Z,992.84
2018-04-04T05:59:28.445Z,992.85
2018-04-04T06:00:08.835Z,992.86
2018-04-04T06:00:49.489Z,992.82
2018-04-04T06:01:29.989Z,992.87
2018-04-04T06:02:10.307Z,992.88
2018-04-04T06:02:50.709Z,992.88
2018-04-04T06:03:31.138Z,992.9
2018-04-04T06:04:13.822Z,992.91
2018-04-04T06:04:55.628Z,992.93
2018-04-04T06:05:36.060Z,992.94
2018-04-04T06:06:16.490Z,992.98
2018-04-04T06:06:56.915Z,992.99
2018-04-04T06:07:37.406Z,993.01
2018-04-04T06:08:18.156Z,993.02
2018-04-04T06:08:58.412Z,993.01
2018-04-04T06:09:38.787Z,993.04
2018-04-04T06:10:21.853Z,992.98
2018-04-04T06:11:02.279Z,993.01
2018-04-04T06:11:42.792Z,993.04
2018-04-04T06:12:23.205Z,993.03
2018-04-04T06:13:03.707Z,993.03
2018-04-04T06:13:44.303Z,993.04
2018-04-04T06:14:24.441Z,993.04
2018-04-04T06:15:04.800Z,993.03
2018-04-04T06:15:47.758Z,993.07
2018-04-04T06:16:27.907Z,993.09
2018-04-04T06:17:08.381Z,993.1
2018-04-04T06:17:49.049Z,993.03
2018-04-04T06:18:29.510Z,993.05
2018-04-04T06:19:10.589Z,993.01
2018-04-04T06:19:51.080Z,993.04
2018-04-04T06:20:31.458Z,993.02
2018-04-04T06:21:12.029Z,993.03
2018-04-04T06:21:52.600Z,993.04
2018-04-04T06:22:32.972Z,993.04
2018-04-04T06:23:13.379Z,993.02
2018-04-04T06:23:53.837Z,993.02
2018-04-04T06:24:34.558Z,993.05
2018-04-04T06:25:14.953Z,993
2018-04-04T06:25:55.449Z,993.03
2018-04-04T06:26:35.959Z,993.01
2018-04-04T06:27:16.424Z,993.01
2018-04-04T06:27:56.760Z,992.99
2018-04-04T06:28:37.057Z,993
2018-04-04T06:29:17.425Z,992.98
2018-04-04T06:29:57.888Z,992.98
2018-04-04T06:30:38.342Z,993
2018-04-04T06:31:18.768Z,993
2018-04-04T06:31:59.116Z,992.99
2018-04-04T06:32:39.494Z,992.99
2018-04-04T06:33:19.835Z,992.98
2018-04-04T06:34:00.321Z,993.01
2018-04-04T06:34:40.698Z,992.99
2018-04-04T06:35:21.063Z,993.04
2018-04-04T06:36:01.437Z,993
2018-04-04T06:36:41.883Z,993.01
2018-04-04T06:37:22.285Z,993.01
2018-04-04T06:38:02.613Z,993.04
2018-04-04T06:38:43.054Z,993.01
2018-04-04T06:39:23.448Z,993.05
2018-04-04T06:40:04.210Z,993.04
2018-04-04T06:40:44.934Z,993.06
2018-04-04T06:41:25.464Z,993.06
2018-04-04T06:42:05.865Z,993.06
2018-04-04T06:42:46.461Z,993.05
2018-04-04T06:43:26.970Z,993.07
2018-04-04T06:44:07.602Z,993.09
2018-04-04T06:44:48.224Z,993.05
2018-04-04T06:45:28.980Z,993.07
2018-04-04T06:46:09.444Z,993.08
2018-04-04T06:46:50.083Z,993.06
2018-04-04T06:47:30.734Z,993.03
2018-04-04T06:48:11.253Z,993.05
2018-04-04T06:48:51.943Z,993.06
2018-04-04T06:49:32.794Z,993.06
2018-04-04T06:50:13.842Z,993.07
2018-04-04T06:50:55.237Z,993.05
2018-04-04T06:51:35.781Z,993.07
2018-04-04T06:52:16.109Z,993.07
2018-04-04T06:52:56.619Z,993.03
2018-04-04T06:53:37.511Z,993.03
2018-04-04T06:54:18.234Z,993.07
2018-04-04T06:54:58.683Z,993.07
2018-04-04T06:55:39.258Z,993.08
2018-04-04T06:56:19.804Z,993.08
2018-04-04T06:57:00.262Z,993.11
2018-04-04T06:57:40.878Z,993.09
2018-04-04T06:58:21.335Z,993.03
2018-04-04T06:59:02.556Z,993.1
2018-04-04T06:59:43.694Z,993.11
2018-04-04T07:00:23.648Z,993.08
2018-04-04T07:01:04.029Z,993.02
2018-04-04T07:01:44.480Z,993.04
2018-04-04T07:02:24.907Z,993.01
2018-04-04T07:03:05.208Z,993.03
2018-04-04T07:03:45.623Z,993.02
2018-04-04T07:04:26.086Z,993.02
2018-04-04T07:05:06.475Z,993.03
2018-04-04T07:05:46.936Z,993.04
2018-04-04T07:06:28.019Z,993.01
2018-04-04T07:07:08.511Z,993.04
2018-04-04T07:07:49.654Z,992.98
2018-04-04T07:08:30.052Z,993
2018-04-04T07:09:10.454Z,993.02
2018-04-04T07:09:50.836Z,992.98
2018-04-04T07:10:31.290Z,992.97
2018-04-04T07:11:12.457Z,992.98
2018-04-04T07:11:52.630Z,992.99
2018-04-04T07:12:33.398Z,992.93
2018-04-04T07:13:13.829Z,992.96
2018-04-04T07:13:54.498Z,992.93
2018-04-04T07:14:34.912Z,992.95
2018-04-04T07:15:16.169Z,992.92
2018-04-04T07:15:55.931Z,992.93
2018-04-04T07:16:36.268Z,992.92
2018-04-04T07:17:16.718Z,992.94
2018-04-04T07:17:57.036Z,992.92
2018-04-04T07:19:50.376Z,992.92
2018-04-04T07:20:30.777Z,992.9
2018-04-04T07:21:11.169Z,992.86
2018-04-04T07:21:51.579Z,992.89
2018-04-04T07:22:32.058Z,992.87
2018-04-04T07:23:26.950Z,992.85
2018-04-04T07:24:07.368Z,992.82
2018-04-04T07:24:47.723Z,992.82
2018-04-04T07:25:28.197Z,992.78
2018-04-04T07:26:08.656Z,992.79
2018-04-04T07:26:49.144Z,992.81
2018-04-04T07:28:03.505Z,992.8
2018-04-04T07:28:44.097Z,992.83
2018-04-04T07:29:24.276Z,992.8
2018-04-04T07:31:24.330Z,992.82
2018-04-04T07:32:04.789Z,992.8
2018-04-04T07:32:45.242Z,992.79
2018-04-04T07:33:25.570Z,992.76
2018-04-04T07:34:05.973Z,992.76
2018-04-04T07:34:46.400Z,992.77
2018-04-04T07:35:27.152Z,992.77
2018-04-04T07:36:07.321Z,992.76
2018-04-04T07:36:47.721Z,992.75
2018-04-04T07:37:28.110Z,992.74
2018-04-04T07:38:08.833Z,992.72
2018-04-04T07:38:49.519Z,992.73
2018-04-04T07:39:29.910Z,992.72
2018-04-04T07:40:10.312Z,992.72
2018-04-04T07:40:50.745Z,992.76
2018-04-04T07:41:31.187Z,992.72
2018-04-04T07:42:11.558Z,992.75
2018-04-04T07:42:51.953Z,992.74
2018-04-04T07:43:32.540Z,992.73
2018-04-04T07:44:12.981Z,992.74
2018-04-04T07:44:53.362Z,992.73
2018-04-04T07:45:33.774Z,992.73
2018-04-04T07:46:14.201Z,992.77
2018-04-04T07:46:54.875Z,992.76
2018-04-04T07:47:35.089Z,992.76
2018-04-04T07:48:15.576Z,992.76
2018-04-04T07:48:55.991Z,992.78
2018-04-04T07:49:36.415Z,992.79
2018-04-04T07:50:16.827Z,992.8
2018-04-04T07:50:57.235Z,992.76
2018-04-04T07:51:37.647Z,992.75
2018-04-04T07:52:18.019Z,992.74
2018-04-04T07:52:58.411Z,992.78
2018-04-04T07:53:38.838Z,992.7
2018-04-04T07:54:21.502Z,992.73
2018-04-04T07:55:02.698Z,992.68
2018-04-04T07:55:43.160Z,992.67
2018-04-04T07:56:23.574Z,992.66
2018-04-04T07:57:03.966Z,992.67
2018-04-04T07:57:44.487Z,992.72
2018-04-04T07:58:24.784Z,992.74
2018-04-04T07:59:05.317Z,992.69
2018-04-04T07:59:45.569Z,992.71
2018-04-04T08:00:26.058Z,992.67
2018-04-04T08:01:06.394Z,992.64
2018-04-04T08:01:46.759Z,992.61
2018-04-04T08:02:27.198Z,992.6
2018-04-04T08:03:07.707Z,992.65
2018-04-04T08:03:48.050Z,992.63
2018-04-04T08:04:28.750Z,992.67
2018-04-04T08:05:09.162Z,992.66
2018-04-04T08:05:49.600Z,992.73
2018-04-04T08:06:30.038Z,992.72
2018-04-04T08:07:10.721Z,992.74
2018-04-04T08:07:51.154Z,992.74
2018-04-04T08:08:31.524Z,992.71
2018-04-04T08:09:11.979Z,992.76
2018-04-04T08:11:30.701Z,992.65
2018-04-04T08:13:47.833Z,992.72
2018-04-04T08:14:28.115Z,992.72
2018-04-04T08:15:08.595Z,992.74
2018-04-04T08:15:48.875Z,992.76
2018-04-04T08:16:29.274Z,992.75
2018-04-04T08:17:09.650Z,992.7
2018-04-04T08:17:50.040Z,992.73
2018-04-04T08:18:30.432Z,992.71
2018-04-04T08:19:10.950Z,992.71
2018-04-04T08:19:51.292Z,992.7
2018-04-04T08:20:31.820Z,992.7
2018-04-04T08:21:12.239Z,992.7
2018-04-04T08:21:52.654Z,992.69
2018-04-04T08:22:33.201Z,992.7
2018-04-04T08:23:13.696Z,992.71
2018-04-04T08:23:54.132Z,992.65
2018-04-04T08:24:34.513Z,992.67
2018-04-04T08:25:15.848Z,992.69
2018-04-04T08:25:55.827Z,992.7
2018-04-04T08:26:37.478Z,992.67
2018-04-04T08:27:17.836Z,992.65
2018-04-04T08:27:58.387Z,992.65
2018-04-04T08:28:41.849Z,992.69
2018-04-04T08:29:23.161Z,992.68
2018-04-04T08:30:03.750Z,992.69
2018-04-04T08:30:44.346Z,992.68
2018-04-04T08:31:24.800Z,992.69
2018-04-04T08:32:05.236Z,992.67
2018-04-04T08:32:45.715Z,992.69
2018-04-04T08:33:26.318Z,992.7
2018-04-04T08:34:06.680Z,992.66
2018-04-04T08:34:47.253Z,992.67
2018-04-04T08:35:27.590Z,992.69
2018-04-04T08:36:08.130Z,992.7
2018-04-04T08:36:48.820Z,992.67
2018-04-04T08:37:29.488Z,992.68
2018-04-04T08:38:09.834Z,992.69
2018-04-04T08:38:50.272Z,992.63
2018-04-04T08:39:31.114Z,992.65
2018-04-04T08:40:11.680Z,992.64
2018-04-04T08:40:51.958Z,992.65
2018-04-04T08:42:50.002Z,992.62
2018-04-04T08:43:30.295Z,992.63
2018-04-04T08:44:10.735Z,992.6
2018-04-04T08:44:51.186Z,992.63
2018-04-04T08:45:31.560Z,992.63
2018-04-04T08:46:11.991Z,992.58
2018-04-04T08:46:52.415Z,992.57
2018-04-04T08:47:32.854Z,992.58
2018-04-04T08:48:13.307Z,992.54
2018-04-04T08:48:53.704Z,992.51
2018-04-04T08:49:34.094Z,992.54
2018-04-04T08:50:14.749Z,992.53
2018-04-04T08:50:55.202Z,992.5
2018-04-04T08:51:35.643Z,992.5
2018-04-04T08:52:39.853Z,992.46
2018-04-04T08:53:24.616Z,992.45
2018-04-04T08:54:07.929Z,992.47
2018-04-04T08:54:50.206Z,992.44
2018-04-04T08:55:30.647Z,992.48
2018-04-04T08:56:11.071Z,992.46
2018-04-04T08:56:51.469Z,992.49
2018-04-04T08:57:31.940Z,992.44
2018-04-04T08:58:12.345Z,992.52
2018-04-04T08:58:52.829Z,992.54
2018-04-04T08:59:33.250Z,992.51
2018-04-04T09:00:13.677Z,992.48
2018-04-04T09:00:54.131Z,992.47
2018-04-04T09:01:34.511Z,992.39
2018-04-04T09:02:14.920Z,992.37
2018-04-04T09:02:55.364Z,992.34
2018-04-04T09:03:35.847Z,992.37
2018-04-04T09:04:16.208Z,992.34
2018-04-04T09:04:56.670Z,992.33
2018-04-04T09:05:37.129Z,992.3
2018-04-04T09:06:18.702Z,992.29
2018-04-04T09:06:59.514Z,992.22
2018-04-04T09:07:40.318Z,992.21
2018-04-04T09:08:20.701Z,992.19
2018-04-04T09:09:01.427Z,992.2
2018-04-04T09:09:41.956Z,992.17
2018-04-04T09:10:22.333Z,992.15
2018-04-04T09:11:02.714Z,992.12
2018-04-04T09:11:43.158Z,992.13
2018-04-04T09:12:23.593Z,992.18
2018-04-04T09:13:04.033Z,992.18
2018-04-04T09:13:44.532Z,992.17
2018-04-04T09:14:24.907Z,992.11
2018-04-04T09:15:05.300Z,992.13
2018-04-04T09:15:45.885Z,992.1
2018-04-04T09:16:26.244Z,992.12
2018-04-04T09:17:06.691Z,992.12
2018-04-04T09:17:47.140Z,992.17
2018-04-04T09:18:27.576Z,992.05
2018-04-04T09:19:07.921Z,992.07
2018-04-04T09:19:48.301Z,992.1
2018-04-04T09:20:28.709Z,992.08
2018-04-04T09:21:09.318Z,992.14
2018-04-04T09:21:49.766Z,992.15
2018-04-04T09:22:30.158Z,992.18
2018-04-04T09:23:10.657Z,992.13
2018-04-04T09:23:51.021Z,992.16
2018-04-04T09:24:31.485Z,992.14
2018-04-04T09:25:11.856Z,992.22
2018-04-04T09:25:52.321Z,992.15
2018-04-04T09:26:32.820Z,992.19
2018-04-04T09:27:14.622Z,992.19
2018-04-04T09:28:16.126Z,992.23
2018-04-04T09:28:57.152Z,992.26
2018-04-04T09:29:37.816Z,992.25
2018-04-04T09:30:18.239Z,992.2
2018-04-04T09:30:59.052Z,992.24
2018-04-04T09:31:39.602Z,992.27
2018-04-04T09:32:19.999Z,992.25
2018-04-04T09:33:00.631Z,992.25
2018-04-04T09:33:41.087Z,992.29
2018-04-04T09:34:21.457Z,992.29
2018-04-04T09:35:02.120Z,992.25
2018-04-04T09:35:49.236Z,992.26
2018-04-04T09:39:57.776Z,992.16
2018-04-04T09:40:38.539Z,992.18
2018-04-04T09:41:19.052Z,992.22
2018-04-04T09:42:00.244Z,992.13
2018-04-04T09:42:41.467Z,992.05
2018-04-04T09:43:22.171Z,992
2018-04-04T09:44:02.840Z,992.02
2018-04-04T09:44:43.792Z,991.99
2018-04-04T09:45:24.537Z,991.99
2018-04-04T09:46:04.994Z,991.93
2018-04-04T09:46:45.586Z,991.9
2018-04-04T09:47:26.145Z,991.97